sensor_id;sensor_type;location;lat;lon;timestamp;P1;durP1;ratioP1;P2;durP2;ratioP2
21810;SDS011;11067;48.788;9.208;2023-03-01T00:00:17;17.33;;;10.45;;
21810;SDS011;11067;48.788;9.208;2023-03-01T00:02:43;19.77;;;11.25;;
21810;SDS011;11067;48.788;9.208;2023-03-01T00:05:09;22.30;;;11.70;;
21810;SDS011;11067;48.788;9.208;2023-03-01T00:07:35;17.75;;;10.20;;
21810;SDS011;11067;48.788;9.208;2023-03-01T00:10:01;18.52;;;11.25;;
21810;SDS011;11067;48.788;9.208;2023-03-01T00:12:27;19.83;;;10.48;;
21810;SDS011;11067;48.788;9.208;2023-03-01T00:14:53;17.33;;;10.68;;
21810;SDS011;11067;48.788;9.208;2023-03-01T00:17:18;18.48;;;11.18;;
21810;SDS011;11067;48.788;9.208;2023-03-01T00:19:44;18.55;;;10.63;;
21810;SDS011;11067;48.788;9.208;2023-03-01T00:22:10;19.48;;;11.20;;
21810;SDS011;11067;48.788;9.208;2023-03-01T00:24:36;17.90;;;10.50;;
21810;SDS011;11067;48.788;9.208;2023-03-01T00:27:02;17.90;;;11.10;;
21810;SDS011;11067;48.788;9.208;2023-03-01T00:29:28;19.02;;;11.18;;
21810;SDS011;11067;48.788;9.208;2023-03-01T00:31:54;17.77;;;10.70;;
21810;SDS011;11067;48.788;9.208;2023-03-01T00:34:20;21.90;;;11.25;;
21810;SDS011;11067;48.788;9.208;2023-03-01T00:36:46;21.40;;;11.00;;
21810;SDS011;11067;48.788;9.208;2023-03-01T00:39:13;18.70;;;10.93;;
21810;SDS011;11067;48.788;9.208;2023-03-01T00:41:39;18.02;;;10.35;;
21810;SDS011;11067;48.788;9.208;2023-03-01T00:44:05;19.92;;;10.82;;
21810;SDS011;11067;48.788;9.208;2023-03-01T00:46:31;18.67;;;11.02;;
21810;SDS011;11067;48.788;9.208;2023-03-01T00:48:58;17.90;;;11.10;;
21810;SDS011;11067;48.788;9.208;2023-03-01T00:51:27;20.08;;;11.30;;
21810;SDS011;11067;48.788;9.208;2023-03-01T00:53:54;20.50;;;11.48;;
21810;SDS011;11067;48.788;9.208;2023-03-01T00:56:21;23.17;;;11.35;;
21810;SDS011;11067;48.788;9.208;2023-03-01T00:58:47;17.30;;;10.27;;
21810;SDS011;11067;48.788;9.208;2023-03-01T01:01:15;19.37;;;10.80;;
21810;SDS011;11067;48.788;9.208;2023-03-01T01:03:50;16.63;;;10.73;;
21810;SDS011;11067;48.788;9.208;2023-03-01T01:06:38;17.92;;;10.88;;
21810;SDS011;11067;48.788;9.208;2023-03-01T01:09:04;19.27;;;11.18;;
21810;SDS011;11067;48.788;9.208;2023-03-01T01:11:30;20.10;;;11.20;;
21810;SDS011;11067;48.788;9.208;2023-03-01T01:13:56;18.95;;;9.95;;
21810;SDS011;11067;48.788;9.208;2023-03-01T01:16:23;16.17;;;10.57;;
21810;SDS011;11067;48.788;9.208;2023-03-01T01:18:49;17.48;;;10.13;;
21810;SDS011;11067;48.788;9.208;2023-03-01T01:21:17;17.85;;;10.30;;
21810;SDS011;11067;48.788;9.208;2023-03-01T01:23:43;19.13;;;10.90;;
21810;SDS011;11067;48.788;9.208;2023-03-01T01:26:11;17.53;;;9.97;;
21810;SDS011;11067;48.788;9.208;2023-03-01T01:28:37;16.35;;;9.60;;
21810;SDS011;11067;48.788;9.208;2023-03-01T01:31:04;18.48;;;10.07;;
21810;SDS011;11067;48.788;9.208;2023-03-01T01:33:30;21.02;;;10.68;;
21810;SDS011;11067;48.788;9.208;2023-03-01T01:35:56;19.55;;;10.82;;
21810;SDS011;11067;48.788;9.208;2023-03-01T01:38:22;18.42;;;10.45;;
21810;SDS011;11067;48.788;9.208;2023-03-01T01:40:49;18.25;;;10.88;;
21810;SDS011;11067;48.788;9.208;2023-03-01T01:43:23;17.73;;;10.43;;
21810;SDS011;11067;48.788;9.208;2023-03-01T01:45:49;17.40;;;10.40;;
21810;SDS011;11067;48.788;9.208;2023-03-01T01:48:22;17.90;;;9.98;;
21810;SDS011;11067;48.788;9.208;2023-03-01T01:50:56;18.90;;;11.03;;
21810;SDS011;11067;48.788;9.208;2023-03-01T01:53:24;18.35;;;11.23;;
21810;SDS011;11067;48.788;9.208;2023-03-01T01:55:52;17.92;;;10.90;;
21810;SDS011;11067;48.788;9.208;2023-03-01T01:58:19;20.50;;;11.85;;
21810;SDS011;11067;48.788;9.208;2023-03-01T02:00:46;20.35;;;11.45;;
21810;SDS011;11067;48.788;9.208;2023-03-01T02:03:13;18.37;;;10.63;;
21810;SDS011;11067;48.788;9.208;2023-03-01T02:06:03;20.67;;;11.27;;
21810;SDS011;11067;48.788;9.208;2023-03-01T02:08:30;16.87;;;10.47;;
21810;SDS011;11067;48.788;9.208;2023-03-01T02:10:57;18.75;;;10.50;;
21810;SDS011;11067;48.788;9.208;2023-03-01T02:13:24;20.67;;;11.27;;
21810;SDS011;11067;48.788;9.208;2023-03-01T02:15:50;19.13;;;10.63;;
21810;SDS011;11067;48.788;9.208;2023-03-01T02:18:17;26.03;;;12.10;;
21810;SDS011;11067;48.788;9.208;2023-03-01T02:23:28;17.90;;;10.55;;
21810;SDS011;11067;48.788;9.208;2023-03-01T02:25:58;20.03;;;11.13;;
21810;SDS011;11067;48.788;9.208;2023-03-01T02:28:30;18.57;;;10.73;;
21810;SDS011;11067;48.788;9.208;2023-03-01T02:30:56;18.52;;;10.50;;
21810;SDS011;11067;48.788;9.208;2023-03-01T02:33:41;19.60;;;10.52;;
21810;SDS011;11067;48.788;9.208;2023-03-01T02:36:19;17.83;;;11.20;;
21810;SDS011;11067;48.788;9.208;2023-03-01T02:38:45;17.73;;;10.68;;
21810;SDS011;11067;48.788;9.208;2023-03-01T02:41:13;19.85;;;11.25;;
21810;SDS011;11067;48.788;9.208;2023-03-01T02:43:40;22.08;;;11.43;;
21810;SDS011;11067;48.788;9.208;2023-03-01T02:46:07;18.92;;;11.73;;
21810;SDS011;11067;48.788;9.208;2023-03-01T02:48:44;21.50;;;11.63;;
21810;SDS011;11067;48.788;9.208;2023-03-01T02:51:14;20.67;;;11.27;;
21810;SDS011;11067;48.788;9.208;2023-03-01T02:53:59;20.27;;;11.30;;
21810;SDS011;11067;48.788;9.208;2023-03-01T02:56:29;18.40;;;11.60;;
21810;SDS011;11067;48.788;9.208;2023-03-01T02:58:55;21.35;;;11.20;;
21810;SDS011;11067;48.788;9.208;2023-03-01T03:01:25;21.48;;;11.38;;
21810;SDS011;11067;48.788;9.208;2023-03-01T03:04:01;20.35;;;11.15;;
21810;SDS011;11067;48.788;9.208;2023-03-01T03:06:27;20.67;;;11.52;;
21810;SDS011;11067;48.788;9.208;2023-03-01T03:08:54;20.77;;;11.35;;
21810;SDS011;11067;48.788;9.208;2023-03-01T03:11:20;19.88;;;12.18;;
21810;SDS011;11067;48.788;9.208;2023-03-01T03:13:46;20.90;;;11.17;;
21810;SDS011;11067;48.788;9.208;2023-03-01T03:16:13;20.10;;;11.38;;
21810;SDS011;11067;48.788;9.208;2023-03-01T03:18:38;22.95;;;11.50;;
21810;SDS011;11067;48.788;9.208;2023-03-01T03:21:07;18.00;;;10.52;;
21810;SDS011;11067;48.788;9.208;2023-03-01T03:23:35;21.97;;;12.07;;
21810;SDS011;11067;48.788;9.208;2023-03-01T03:26:01;19.85;;;11.63;;
21810;SDS011;11067;48.788;9.208;2023-03-01T03:28:29;20.50;;;12.07;;
21810;SDS011;11067;48.788;9.208;2023-03-01T03:30:55;19.92;;;11.35;;
21810;SDS011;11067;48.788;9.208;2023-03-01T03:33:21;20.67;;;11.63;;
21810;SDS011;11067;48.788;9.208;2023-03-01T03:35:48;19.38;;;11.45;;
21810;SDS011;11067;48.788;9.208;2023-03-01T03:38:15;19.58;;;11.80;;
21810;SDS011;11067;48.788;9.208;2023-03-01T03:40:44;21.92;;;11.80;;
21810;SDS011;11067;48.788;9.208;2023-03-01T03:43:14;21.90;;;11.77;;
21810;SDS011;11067;48.788;9.208;2023-03-01T03:45:41;17.88;;;10.93;;
21810;SDS011;11067;48.788;9.208;2023-03-01T03:48:07;20.37;;;11.23;;
21810;SDS011;11067;48.788;9.208;2023-03-01T03:50:34;19.58;;;11.85;;
21810;SDS011;11067;48.788;9.208;2023-03-01T03:53:00;25.52;;;12.20;;
21810;SDS011;11067;48.788;9.208;2023-03-01T03:55:27;21.38;;;11.80;;
21810;SDS011;11067;48.788;9.208;2023-03-01T03:57:59;22.10;;;11.85;;
21810;SDS011;11067;48.788;9.208;2023-03-01T04:00:31;20.35;;;11.48;;
21810;SDS011;11067;48.788;9.208;2023-03-01T04:02:57;21.33;;;11.97;;
21810;SDS011;11067;48.788;9.208;2023-03-01T04:05:23;18.13;;;11.50;;
21810;SDS011;11067;48.788;9.208;2023-03-01T04:07:49;20.73;;;11.77;;
21810;SDS011;11067;48.788;9.208;2023-03-01T04:10:25;22.75;;;12.23;;
21810;SDS011;11067;48.788;9.208;2023-03-01T04:12:51;20.17;;;11.68;;
21810;SDS011;11067;48.788;9.208;2023-03-01T04:15:17;22.97;;;13.13;;
21810;SDS011;11067;48.788;9.208;2023-03-01T04:17:44;21.38;;;11.95;;
21810;SDS011;11067;48.788;9.208;2023-03-01T04:20:11;20.75;;;11.77;;
21810;SDS011;11067;48.788;9.208;2023-03-01T04:22:37;21.83;;;12.13;;
21810;SDS011;11067;48.788;9.208;2023-03-01T04:25:04;22.15;;;12.25;;
21810;SDS011;11067;48.788;9.208;2023-03-01T04:27:32;20.42;;;11.63;;
21810;SDS011;11067;48.788;9.208;2023-03-01T04:29:57;23.15;;;12.52;;
21810;SDS011;11067;48.788;9.208;2023-03-01T04:32:23;22.47;;;12.60;;
21810;SDS011;11067;48.788;9.208;2023-03-01T04:34:49;19.65;;;11.65;;
21810;SDS011;11067;48.788;9.208;2023-03-01T04:37:15;21.55;;;12.35;;
21810;SDS011;11067;48.788;9.208;2023-03-01T04:39:41;21.40;;;11.60;;
21810;SDS011;11067;48.788;9.208;2023-03-01T04:42:16;20.93;;;12.43;;
21810;SDS011;11067;48.788;9.208;2023-03-01T04:44:42;24.13;;;12.27;;
21810;SDS011;11067;48.788;9.208;2023-03-01T04:47:08;21.43;;;11.47;;
21810;SDS011;11067;48.788;9.208;2023-03-01T04:49:34;20.17;;;11.63;;
21810;SDS011;11067;48.788;9.208;2023-03-01T04:52:00;20.77;;;12.13;;
21810;SDS011;11067;48.788;9.208;2023-03-01T04:54:29;22.13;;;12.77;;
21810;SDS011;11067;48.788;9.208;2023-03-01T04:56:56;23.40;;;12.73;;
21810;SDS011;11067;48.788;9.208;2023-03-01T04:59:21;22.05;;;12.98;;
21810;SDS011;11067;48.788;9.208;2023-03-01T05:01:48;23.50;;;12.40;;
21810;SDS011;11067;48.788;9.208;2023-03-01T05:04:14;20.63;;;12.43;;
21810;SDS011;11067;48.788;9.208;2023-03-01T05:06:40;23.75;;;12.07;;
21810;SDS011;11067;48.788;9.208;2023-03-01T05:09:06;20.77;;;12.30;;
21810;SDS011;11067;48.788;9.208;2023-03-01T05:11:32;23.75;;;12.70;;
21810;SDS011;11067;48.788;9.208;2023-03-01T05:14:01;23.00;;;12.20;;
21810;SDS011;11067;48.788;9.208;2023-03-01T05:16:27;20.38;;;11.90;;
21810;SDS011;11067;48.788;9.208;2023-03-01T05:18:53;21.07;;;12.20;;
21810;SDS011;11067;48.788;9.208;2023-03-01T05:21:20;21.15;;;11.98;;
21810;SDS011;11067;48.788;9.208;2023-03-01T05:23:46;20.77;;;11.82;;
21810;SDS011;11067;48.788;9.208;2023-03-01T05:26:13;22.70;;;12.15;;
21810;SDS011;11067;48.788;9.208;2023-03-01T05:28:39;23.90;;;12.77;;
21810;SDS011;11067;48.788;9.208;2023-03-01T05:31:05;21.80;;;12.13;;
21810;SDS011;11067;48.788;9.208;2023-03-01T05:33:38;21.98;;;11.98;;
21810;SDS011;11067;48.788;9.208;2023-03-01T05:36:04;24.30;;;13.48;;
21810;SDS011;11067;48.788;9.208;2023-03-01T05:38:31;21.70;;;12.52;;
21810;SDS011;11067;48.788;9.208;2023-03-01T05:40:57;20.00;;;11.85;;
21810;SDS011;11067;48.788;9.208;2023-03-01T05:43:23;22.63;;;13.00;;
21810;SDS011;11067;48.788;9.208;2023-03-01T05:45:48;23.45;;;12.13;;
21810;SDS011;11067;48.788;9.208;2023-03-01T05:48:14;21.33;;;12.38;;
21810;SDS011;11067;48.788;9.208;2023-03-01T05:50:41;20.40;;;11.90;;
21810;SDS011;11067;48.788;9.208;2023-03-01T05:53:18;20.98;;;12.05;;
21810;SDS011;11067;48.788;9.208;2023-03-01T05:55:46;21.90;;;12.50;;
21810;SDS011;11067;48.788;9.208;2023-03-01T05:58:13;23.13;;;12.02;;
21810;SDS011;11067;48.788;9.208;2023-03-01T06:00:40;21.63;;;11.70;;
21810;SDS011;11067;48.788;9.208;2023-03-01T06:03:06;21.33;;;11.07;;
21810;SDS011;11067;48.788;9.208;2023-03-01T06:05:32;23.38;;;12.20;;
21810;SDS011;11067;48.788;9.208;2023-03-01T06:07:59;23.98;;;12.30;;
21810;SDS011;11067;48.788;9.208;2023-03-01T06:10:25;24.48;;;12.65;;
21810;SDS011;11067;48.788;9.208;2023-03-01T06:12:51;23.13;;;12.70;;
21810;SDS011;11067;48.788;9.208;2023-03-01T06:15:17;22.13;;;12.15;;
21810;SDS011;11067;48.788;9.208;2023-03-01T06:17:44;21.97;;;10.87;;
21810;SDS011;11067;48.788;9.208;2023-03-01T06:20:12;23.80;;;13.07;;
21810;SDS011;11067;48.788;9.208;2023-03-01T06:22:38;22.10;;;12.85;;
21810;SDS011;11067;48.788;9.208;2023-03-01T06:25:04;20.35;;;12.02;;
21810;SDS011;11067;48.788;9.208;2023-03-01T06:27:31;21.17;;;12.60;;
21810;SDS011;11067;48.788;9.208;2023-03-01T06:29:57;21.50;;;12.15;;
21810;SDS011;11067;48.788;9.208;2023-03-01T06:32:23;20.53;;;11.87;;
21810;SDS011;11067;48.788;9.208;2023-03-01T06:34:49;17.80;;;10.68;;
21810;SDS011;11067;48.788;9.208;2023-03-01T06:37:15;24.50;;;13.30;;
21810;SDS011;11067;48.788;9.208;2023-03-01T06:39:41;21.25;;;12.55;;
21810;SDS011;11067;48.788;9.208;2023-03-01T06:42:07;24.17;;;12.90;;
21810;SDS011;11067;48.788;9.208;2023-03-01T06:44:34;20.90;;;12.60;;
21810;SDS011;11067;48.788;9.208;2023-03-01T06:47:00;21.10;;;12.80;;
21810;SDS011;11067;48.788;9.208;2023-03-01T06:49:26;22.38;;;13.23;;
21810;SDS011;11067;48.788;9.208;2023-03-01T06:51:52;21.83;;;13.03;;
21810;SDS011;11067;48.788;9.208;2023-03-01T06:54:18;22.73;;;12.52;;
21810;SDS011;11067;48.788;9.208;2023-03-01T06:56:47;21.77;;;12.17;;
21810;SDS011;11067;48.788;9.208;2023-03-01T06:59:13;23.05;;;12.90;;
21810;SDS011;11067;48.788;9.208;2023-03-01T07:01:38;22.33;;;12.63;;
21810;SDS011;11067;48.788;9.208;2023-03-01T07:04:04;23.43;;;12.40;;
21810;SDS011;11067;48.788;9.208;2023-03-01T07:06:30;21.75;;;12.32;;
21810;SDS011;11067;48.788;9.208;2023-03-01T07:08:56;22.58;;;12.77;;
21810;SDS011;11067;48.788;9.208;2023-03-01T07:11:22;21.30;;;12.10;;
21810;SDS011;11067;48.788;9.208;2023-03-01T07:13:48;22.63;;;13.63;;
21810;SDS011;11067;48.788;9.208;2023-03-01T07:16:14;22.48;;;12.52;;
21810;SDS011;11067;48.788;9.208;2023-03-01T07:18:40;25.17;;;13.45;;
21810;SDS011;11067;48.788;9.208;2023-03-01T07:21:07;25.85;;;12.88;;
21810;SDS011;11067;48.788;9.208;2023-03-01T07:23:33;25.45;;;13.77;;
21810;SDS011;11067;48.788;9.208;2023-03-01T07:25:59;26.63;;;14.73;;
21810;SDS011;11067;48.788;9.208;2023-03-01T07:28:25;27.58;;;13.85;;
21810;SDS011;11067;48.788;9.208;2023-03-01T07:30:52;25.50;;;13.55;;
21810;SDS011;11067;48.788;9.208;2023-03-01T07:33:18;24.33;;;13.60;;
21810;SDS011;11067;48.788;9.208;2023-03-01T07:35:44;22.95;;;12.88;;
21810;SDS011;11067;48.788;9.208;2023-03-01T07:38:10;26.88;;;13.13;;
21810;SDS011;11067;48.788;9.208;2023-03-01T07:40:36;27.00;;;14.17;;
21810;SDS011;11067;48.788;9.208;2023-03-01T07:43:02;25.83;;;14.07;;
21810;SDS011;11067;48.788;9.208;2023-03-01T07:45:28;22.55;;;13.30;;
21810;SDS011;11067;48.788;9.208;2023-03-01T07:47:54;24.65;;;13.68;;
21810;SDS011;11067;48.788;9.208;2023-03-01T07:50:21;24.13;;;13.02;;
21810;SDS011;11067;48.788;9.208;2023-03-01T07:52:48;25.00;;;13.48;;
21810;SDS011;11067;48.788;9.208;2023-03-01T07:55:14;28.13;;;13.95;;
21810;SDS011;11067;48.788;9.208;2023-03-01T07:57:44;23.27;;;12.93;;
21810;SDS011;11067;48.788;9.208;2023-03-01T08:00:10;25.92;;;13.15;;
21810;SDS011;11067;48.788;9.208;2023-03-01T08:02:36;25.33;;;13.60;;
21810;SDS011;11067;48.788;9.208;2023-03-01T08:05:03;22.85;;;13.68;;
21810;SDS011;11067;48.788;9.208;2023-03-01T08:07:29;25.70;;;13.73;;
21810;SDS011;11067;48.788;9.208;2023-03-01T08:09:54;20.83;;;12.65;;
21810;SDS011;11067;48.788;9.208;2023-03-01T08:12:20;25.48;;;13.45;;
21810;SDS011;11067;48.788;9.208;2023-03-01T08:14:46;23.03;;;13.10;;
21810;SDS011;11067;48.788;9.208;2023-03-01T08:17:15;25.70;;;11.45;;
21810;SDS011;11067;48.788;9.208;2023-03-01T08:19:42;23.45;;;13.48;;
21810;SDS011;11067;48.788;9.208;2023-03-01T08:22:08;21.83;;;12.77;;
21810;SDS011;11067;48.788;9.208;2023-03-01T08:24:34;23.98;;;12.90;;
21810;SDS011;11067;48.788;9.208;2023-03-01T08:27:00;22.55;;;13.05;;
21810;SDS011;11067;48.788;9.208;2023-03-01T08:29:27;23.77;;;13.18;;
21810;SDS011;11067;48.788;9.208;2023-03-01T08:31:53;25.73;;;14.27;;
21810;SDS011;11067;48.788;9.208;2023-03-01T08:34:19;23.27;;;13.37;;
21810;SDS011;11067;48.788;9.208;2023-03-01T08:36:45;24.45;;;13.45;;
21810;SDS011;11067;48.788;9.208;2023-03-01T08:39:12;25.43;;;13.17;;
21810;SDS011;11067;48.788;9.208;2023-03-01T08:41:39;24.92;;;13.40;;
21810;SDS011;11067;48.788;9.208;2023-03-01T08:44:05;23.67;;;13.30;;
21810;SDS011;11067;48.788;9.208;2023-03-01T08:46:32;24.33;;;13.40;;
21810;SDS011;11067;48.788;9.208;2023-03-01T08:48:59;29.90;;;14.43;;
21810;SDS011;11067;48.788;9.208;2023-03-01T08:51:25;23.50;;;12.63;;
21810;SDS011;11067;48.788;9.208;2023-03-01T08:53:51;24.60;;;13.65;;
21810;SDS011;11067;48.788;9.208;2023-03-01T08:56:18;24.08;;;13.07;;
21810;SDS011;11067;48.788;9.208;2023-03-01T08:58:45;25.20;;;13.57;;
21810;SDS011;11067;48.788;9.208;2023-03-01T09:01:11;23.98;;;12.68;;
21810;SDS011;11067;48.788;9.208;2023-03-01T09:03:38;20.13;;;12.00;;
21810;SDS011;11067;48.788;9.208;2023-03-01T09:06:04;24.17;;;13.70;;
21810;SDS011;11067;48.788;9.208;2023-03-01T09:08:31;22.13;;;13.20;;
21810;SDS011;11067;48.788;9.208;2023-03-01T09:11:01;22.98;;;12.77;;
21810;SDS011;11067;48.788;9.208;2023-03-01T09:13:27;24.05;;;12.57;;
21810;SDS011;11067;48.788;9.208;2023-03-01T09:15:55;23.58;;;12.95;;
21810;SDS011;11067;48.788;9.208;2023-03-01T09:18:21;23.20;;;13.35;;
21810;SDS011;11067;48.788;9.208;2023-03-01T09:20:47;23.23;;;13.43;;
21810;SDS011;11067;48.788;9.208;2023-03-01T09:23:13;23.23;;;13.52;;
21810;SDS011;11067;48.788;9.208;2023-03-01T09:25:39;24.15;;;12.95;;
21810;SDS011;11067;48.788;9.208;2023-03-01T09:28:05;24.77;;;13.88;;
21810;SDS011;11067;48.788;9.208;2023-03-01T09:30:31;20.92;;;12.77;;
21810;SDS011;11067;48.788;9.208;2023-03-01T09:32:57;22.13;;;13.25;;
21810;SDS011;11067;48.788;9.208;2023-03-01T09:35:23;24.90;;;13.52;;
21810;SDS011;11067;48.788;9.208;2023-03-01T09:37:49;24.07;;;12.97;;
21810;SDS011;11067;48.788;9.208;2023-03-01T09:40:16;25.33;;;13.07;;
21810;SDS011;11067;48.788;9.208;2023-03-01T09:42:53;24.58;;;12.95;;
21810;SDS011;11067;48.788;9.208;2023-03-01T09:45:25;24.38;;;13.73;;
21810;SDS011;11067;48.788;9.208;2023-03-01T09:47:51;22.70;;;12.90;;
21810;SDS011;11067;48.788;9.208;2023-03-01T09:50:18;26.98;;;14.18;;
21810;SDS011;11067;48.788;9.208;2023-03-01T09:52:50;22.90;;;14.07;;
21810;SDS011;11067;48.788;9.208;2023-03-01T09:58:06;24.77;;;13.50;;
21810;SDS011;11067;48.788;9.208;2023-03-01T10:00:41;23.33;;;12.80;;
21810;SDS011;11067;48.788;9.208;2023-03-01T10:03:16;20.73;;;13.15;;
21810;SDS011;11067;48.788;9.208;2023-03-01T10:06:02;24.42;;;12.32;;
21810;SDS011;11067;48.788;9.208;2023-03-01T10:08:37;20.65;;;11.80;;
21810;SDS011;11067;48.788;9.208;2023-03-01T10:11:04;22.25;;;13.45;;
21810;SDS011;11067;48.788;9.208;2023-03-01T10:18:59;21.42;;;12.70;;
21810;SDS011;11067;48.788;9.208;2023-03-01T10:21:26;20.80;;;12.13;;
21810;SDS011;11067;48.788;9.208;2023-03-01T10:23:54;22.92;;;12.38;;
21810;SDS011;11067;48.788;9.208;2023-03-01T10:26:28;21.42;;;12.73;;
21810;SDS011;11067;48.788;9.208;2023-03-01T10:31:25;22.13;;;12.13;;
21810;SDS011;11067;48.788;9.208;2023-03-01T10:33:54;22.38;;;12.32;;
21810;SDS011;11067;48.788;9.208;2023-03-01T10:36:21;20.70;;;13.05;;
21810;SDS011;11067;48.788;9.208;2023-03-01T10:38:49;22.35;;;12.48;;
21810;SDS011;11067;48.788;9.208;2023-03-01T10:41:17;20.98;;;12.85;;
21810;SDS011;11067;48.788;9.208;2023-03-01T10:43:44;23.48;;;12.15;;
21810;SDS011;11067;48.788;9.208;2023-03-01T10:51:36;19.97;;;11.60;;
21810;SDS011;11067;48.788;9.208;2023-03-01T10:54:09;22.95;;;11.73;;
21810;SDS011;11067;48.788;9.208;2023-03-01T10:56:48;22.23;;;11.90;;
21810;SDS011;11067;48.788;9.208;2023-03-01T10:59:22;19.57;;;11.90;;
21810;SDS011;11067;48.788;9.208;2023-03-01T11:01:51;17.98;;;11.52;;
21810;SDS011;11067;48.788;9.208;2023-03-01T11:04:27;20.45;;;12.20;;
21810;SDS011;11067;48.788;9.208;2023-03-01T11:06:59;19.02;;;11.85;;
21810;SDS011;11067;48.788;9.208;2023-03-01T11:09:25;19.58;;;11.85;;
21810;SDS011;11067;48.788;9.208;2023-03-01T11:11:55;21.75;;;12.48;;
21810;SDS011;11067;48.788;9.208;2023-03-01T11:14:22;18.42;;;11.27;;
21810;SDS011;11067;48.788;9.208;2023-03-01T11:16:57;21.17;;;12.88;;
21810;SDS011;11067;48.788;9.208;2023-03-01T11:19:23;22.33;;;13.13;;
21810;SDS011;11067;48.788;9.208;2023-03-01T11:24:25;21.75;;;12.95;;
21810;SDS011;11067;48.788;9.208;2023-03-01T11:26:53;20.38;;;11.95;;
21810;SDS011;11067;48.788;9.208;2023-03-01T11:29:26;20.23;;;12.43;;
21810;SDS011;11067;48.788;9.208;2023-03-01T11:31:54;18.80;;;12.17;;
21810;SDS011;11067;48.788;9.208;2023-03-01T11:34:24;22.38;;;11.73;;
21810;SDS011;11067;48.788;9.208;2023-03-01T11:36:56;21.80;;;12.00;;
21810;SDS011;11067;48.788;9.208;2023-03-01T11:39:28;19.35;;;11.88;;
21810;SDS011;11067;48.788;9.208;2023-03-01T11:43:01;21.27;;;12.13;;
21810;SDS011;11067;48.788;9.208;2023-03-01T11:44:53;19.00;;;11.40;;
21810;SDS011;11067;48.788;9.208;2023-03-01T11:49:56;20.25;;;11.70;;
21810;SDS011;11067;48.788;9.208;2023-03-01T11:55:18;19.77;;;11.93;;
21810;SDS011;11067;48.788;9.208;2023-03-01T12:08:20;19.80;;;11.15;;
21810;SDS011;11067;48.788;9.208;2023-03-01T12:10:55;18.75;;;11.65;;
21810;SDS011;11067;48.788;9.208;2023-03-01T12:13:45;20.60;;;11.27;;
21810;SDS011;11067;48.788;9.208;2023-03-01T12:16:24;17.77;;;10.70;;
21810;SDS011;11067;48.788;9.208;2023-03-01T12:19:01;17.92;;;11.23;;
21810;SDS011;11067;48.788;9.208;2023-03-01T12:21:38;18.87;;;11.63;;
21810;SDS011;11067;48.788;9.208;2023-03-01T12:24:21;18.02;;;11.02;;
21810;SDS011;11067;48.788;9.208;2023-03-01T12:27:05;17.08;;;10.77;;
21810;SDS011;11067;48.788;9.208;2023-03-01T12:32:11;17.75;;;11.07;;
21810;SDS011;11067;48.788;9.208;2023-03-01T12:39:59;17.15;;;10.00;;
21810;SDS011;11067;48.788;9.208;2023-03-01T12:50:19;17.83;;;9.95;;
21810;SDS011;11067;48.788;9.208;2023-03-01T12:52:55;20.47;;;10.47;;
21810;SDS011;11067;48.788;9.208;2023-03-01T12:55:29;16.23;;;10.13;;
21810;SDS011;11067;48.788;9.208;2023-03-01T12:58:00;17.77;;;10.10;;
21810;SDS011;11067;48.788;9.208;2023-03-01T13:00:38;16.63;;;10.43;;
21810;SDS011;11067;48.788;9.208;2023-03-01T13:05:34;15.90;;;10.35;;
21810;SDS011;11067;48.788;9.208;2023-03-01T13:08:06;19.70;;;10.88;;
21810;SDS011;11067;48.788;9.208;2023-03-01T13:13:18;22.90;;;9.57;;
21810;SDS011;11067;48.788;9.208;2023-03-01T13:15:45;15.53;;;9.60;;
21810;SDS011;11067;48.788;9.208;2023-03-01T13:25:33;15.07;;;9.40;;
21810;SDS011;11067;48.788;9.208;2023-03-01T13:30:52;18.90;;;10.80;;
21810;SDS011;11067;48.788;9.208;2023-03-01T13:35:53;19.40;;;10.93;;
21810;SDS011;11067;48.788;9.208;2023-03-01T13:41:06;26.42;;;15.00;;
21810;SDS011;11067;48.788;9.208;2023-03-01T13:43:33;15.82;;;8.52;;
21810;SDS011;11067;48.788;9.208;2023-03-01T13:46:00;19.92;;;11.60;;
21810;SDS011;11067;48.788;9.208;2023-03-01T13:48:28;17.27;;;10.07;;
21810;SDS011;11067;48.788;9.208;2023-03-01T13:50:58;18.23;;;11.40;;
21810;SDS011;11067;48.788;9.208;2023-03-01T13:53:26;17.77;;;10.80;;
21810;SDS011;11067;48.788;9.208;2023-03-01T13:55:58;19.80;;;12.05;;
21810;SDS011;11067;48.788;9.208;2023-03-01T13:58:27;23.90;;;12.93;;
21810;SDS011;11067;48.788;9.208;2023-03-01T14:00:57;19.30;;;10.70;;
21810;SDS011;11067;48.788;9.208;2023-03-01T14:03:24;18.55;;;11.70;;
21810;SDS011;11067;48.788;9.208;2023-03-01T14:05:58;20.85;;;10.75;;
21810;SDS011;11067;48.788;9.208;2023-03-01T14:08:25;20.65;;;12.02;;
21810;SDS011;11067;48.788;9.208;2023-03-01T14:10:57;18.75;;;10.65;;
21810;SDS011;11067;48.788;9.208;2023-03-01T14:19:01;21.25;;;12.48;;
21810;SDS011;11067;48.788;9.208;2023-03-01T14:21:29;19.35;;;12.13;;
21810;SDS011;11067;48.788;9.208;2023-03-01T14:23:56;20.30;;;12.55;;
21810;SDS011;11067;48.788;9.208;2023-03-01T14:26:22;22.10;;;13.65;;
21810;SDS011;11067;48.788;9.208;2023-03-01T14:28:49;23.83;;;12.60;;
21810;SDS011;11067;48.788;9.208;2023-03-01T14:34:00;18.92;;;11.80;;
21810;SDS011;11067;48.788;9.208;2023-03-01T14:36:27;21.27;;;13.03;;
21810;SDS011;11067;48.788;9.208;2023-03-01T14:38:53;21.90;;;12.85;;
21810;SDS011;11067;48.788;9.208;2023-03-01T14:41:22;21.77;;;11.95;;
21810;SDS011;11067;48.788;9.208;2023-03-01T14:43:58;21.08;;;12.88;;
21810;SDS011;11067;48.788;9.208;2023-03-01T14:46:38;20.17;;;12.30;;
21810;SDS011;11067;48.788;9.208;2023-03-01T14:51:34;18.92;;;10.63;;
21810;SDS011;11067;48.788;9.208;2023-03-01T14:54:01;20.85;;;11.73;;
21810;SDS011;11067;48.788;9.208;2023-03-01T14:56:27;21.43;;;11.97;;
21810;SDS011;11067;48.788;9.208;2023-03-01T14:58:53;20.65;;;11.90;;
21810;SDS011;11067;48.788;9.208;2023-03-01T15:01:24;19.67;;;12.18;;
21810;SDS011;11067;48.788;9.208;2023-03-01T15:03:50;21.85;;;12.70;;
21810;SDS011;11067;48.788;9.208;2023-03-01T15:06:20;18.05;;;11.35;;
21810;SDS011;11067;48.788;9.208;2023-03-01T15:08:48;22.10;;;12.57;;
21810;SDS011;11067;48.788;9.208;2023-03-01T15:11:48;24.70;;;14.10;;
21810;SDS011;11067;48.788;9.208;2023-03-01T15:16:53;24.15;;;13.48;;
21810;SDS011;11067;48.788;9.208;2023-03-01T15:19:19;22.57;;;13.17;;
21810;SDS011;11067;48.788;9.208;2023-03-01T15:21:46;21.60;;;12.57;;
21810;SDS011;11067;48.788;9.208;2023-03-01T15:24:17;21.53;;;11.97;;
21810;SDS011;11067;48.788;9.208;2023-03-01T15:26:51;22.77;;;12.30;;
21810;SDS011;11067;48.788;9.208;2023-03-01T15:29:23;22.65;;;13.18;;
21810;SDS011;11067;48.788;9.208;2023-03-01T15:32:02;22.45;;;12.88;;
21810;SDS011;11067;48.788;9.208;2023-03-01T15:34:32;20.73;;;12.53;;
21810;SDS011;11067;48.788;9.208;2023-03-01T15:36:59;23.38;;;12.70;;
21810;SDS011;11067;48.788;9.208;2023-03-01T15:42:02;22.60;;;12.63;;
21810;SDS011;11067;48.788;9.208;2023-03-01T15:44:29;19.17;;;12.70;;
21810;SDS011;11067;48.788;9.208;2023-03-01T15:46:55;21.85;;;11.88;;
21810;SDS011;11067;48.788;9.208;2023-03-01T15:49:41;20.77;;;11.88;;
21810;SDS011;11067;48.788;9.208;2023-03-01T15:52:17;25.27;;;12.13;;
21810;SDS011;11067;48.788;9.208;2023-03-01T15:54:45;20.13;;;11.32;;
21810;SDS011;11067;48.788;9.208;2023-03-01T15:57:12;20.57;;;12.43;;